createdAt,value
2023-02-19T00:01:22.901Z,8.48
2023-02-19T00:03:58.297Z,8.47
2023-02-19T00:06:26.859Z,8.46
2023-02-19T00:08:53.893Z,8.43
2023-02-19T00:11:23.111Z,8.40
2023-02-19T00:13:51.944Z,8.39
2023-02-19T00:16:21.688Z,8.37
2023-02-19T00:18:48.556Z,8.30
2023-02-19T00:21:18.079Z,8.24
2023-02-19T00:23:52.225Z,8.20
2023-02-19T00:26:19.378Z,8.16
2023-02-19T00:28:47.649Z,8.12
2023-02-19T00:31:23.515Z,8.08
2023-02-19T00:33:55.867Z,8.04
2023-02-19T00:36:23.383Z,8.03
2023-02-19T00:38:50.235Z,7.97
2023-02-19T00:41:19.617Z,7.92
2023-02-19T00:43:50.385Z,7.86
2023-02-19T00:46:21.222Z,7.81
2023-02-19T00:48:48.157Z,7.77
2023-02-19T00:51:15.608Z,7.72
2023-02-19T00:53:43.176Z,7.68
2023-02-19T00:56:10.665Z,7.65
2023-02-19T00:58:37.700Z,7.61
2023-02-19T01:01:06.492Z,7.57
2023-02-19T01:03:37.167Z,7.53
2023-02-19T01:06:05.127Z,7.47
2023-02-19T01:08:32.296Z,7.41
2023-02-19T01:10:59.189Z,7.37
2023-02-19T01:13:26.046Z,7.37
2023-02-19T01:15:52.626Z,7.34
2023-02-19T01:18:20.265Z,7.26
2023-02-19T01:20:47.033Z,7.24
2023-02-19T01:23:14.325Z,7.20
2023-02-19T01:25:43.659Z,7.15
2023-02-19T01:28:11.048Z,7.05
2023-02-19T01:30:39.257Z,7.01
2023-02-19T01:33:07.355Z,6.94
2023-02-19T01:35:34.344Z,6.90
2023-02-19T01:38:00.862Z,6.87
2023-02-19T01:40:27.491Z,6.85
2023-02-19T01:42:54.082Z,6.87
2023-02-19T01:45:32.449Z,6.84
2023-02-19T01:48:06.517Z,6.81
2023-02-19T01:50:38.869Z,6.79
2023-02-19T01:53:08.506Z,6.76
2023-02-19T01:55:35.591Z,6.76
2023-02-19T01:58:03.455Z,6.74
2023-02-19T02:00:30.778Z,6.70
2023-02-19T02:02:58.575Z,6.67
2023-02-19T02:05:34.246Z,6.65
2023-02-19T02:08:21.587Z,6.65
2023-02-19T02:10:50.074Z,6.62
2023-02-19T02:13:16.772Z,6.57
2023-02-19T02:16:23.981Z,6.48
2023-02-19T02:18:59.832Z,6.42
2023-02-19T02:21:49.033Z,6.42
2023-02-19T02:24:18.289Z,6.39
2023-02-19T02:26:57.909Z,6.36
2023-02-19T02:29:33.200Z,6.31
2023-02-19T02:32:08.532Z,6.25
2023-02-19T02:35:01.154Z,6.20
2023-02-19T02:37:33.519Z,6.29
2023-02-19T02:40:00.752Z,6.28
2023-02-19T02:42:27.281Z,6.21
2023-02-19T02:45:17.684Z,6.20
2023-02-19T02:47:57.247Z,6.15
2023-02-19T02:50:34.597Z,6.05
2023-02-19T02:53:24.485Z,6.06
2023-02-19T02:55:53.501Z,5.93
2023-02-19T02:58:23.924Z,5.84
2023-02-19T03:01:15.806Z,5.76
2023-02-19T03:03:44.925Z,5.66
2023-02-19T03:06:15.406Z,5.64
2023-02-19T03:08:53.761Z,5.62
2023-02-19T03:11:39.311Z,5.60
2023-02-19T03:14:31.552Z,5.55
2023-02-19T03:17:26.916Z,5.66
2023-02-19T03:19:57.259Z,5.72
2023-02-19T03:22:29.982Z,5.79
2023-02-19T03:25:30.769Z,5.81
2023-02-19T03:28:00.536Z,5.81
2023-02-19T03:30:34.034Z,5.82
2023-02-19T03:33:08.376Z,5.81
2023-02-19T03:35:44.438Z,5.80
2023-02-19T03:38:18.669Z,5.76
2023-02-19T03:40:56.236Z,5.74
2023-02-19T03:43:42.107Z,5.77
2023-02-19T03:46:27.762Z,5.81
2023-02-19T03:49:05.856Z,5.84
2023-02-19T03:51:39.162Z,5.81
2023-02-19T03:54:38.104Z,5.72
2023-02-19T03:57:17.966Z,5.65
2023-02-19T04:00:05.539Z,5.64
2023-02-19T04:02:44.018Z,5.66
2023-02-19T04:05:17.101Z,5.66
2023-02-19T04:07:48.880Z,5.64
2023-02-19T04:10:17.793Z,5.65
2023-02-19T04:12:50.318Z,5.66
2023-02-19T04:15:22.898Z,5.66
2023-02-19T04:17:59.718Z,5.64
2023-02-19T04:20:32.073Z,5.63
2023-02-19T04:22:58.973Z,5.63
2023-02-19T04:25:27.789Z,5.61
2023-02-19T04:27:54.523Z,5.58
2023-02-19T04:30:21.325Z,5.57
2023-02-19T04:32:48.151Z,5.61
2023-02-19T04:35:14.692Z,5.65
2023-02-19T04:37:41.205Z,5.70
2023-02-19T04:40:08.424Z,5.70
2023-02-19T04:42:34.912Z,5.71
2023-02-19T04:45:01.420Z,5.73
2023-02-19T04:47:27.976Z,5.74
2023-02-19T04:49:54.515Z,5.81
2023-02-19T04:52:21.036Z,5.83
2023-02-19T04:54:47.575Z,5.84
2023-02-19T04:57:14.155Z,5.86
2023-02-19T04:59:40.748Z,5.91
2023-02-19T05:02:07.293Z,5.95
2023-02-19T05:04:34.003Z,5.99
2023-02-19T05:07:00.630Z,6.03
2023-02-19T05:09:27.131Z,6.05
2023-02-19T05:11:53.732Z,6.05
2023-02-19T05:14:20.291Z,6.05
2023-02-19T05:16:46.891Z,6.06
2023-02-19T05:19:13.910Z,6.11
2023-02-19T05:21:40.912Z,6.14
2023-02-19T05:24:07.910Z,6.18
2023-02-19T05:26:35.066Z,6.21
2023-02-19T05:29:01.966Z,6.02
2023-02-19T05:31:28.965Z,5.84
2023-02-19T05:33:56.854Z,5.71
2023-02-19T05:36:23.973Z,5.61
2023-02-19T05:38:56.590Z,5.56
2023-02-19T05:41:33.339Z,5.51
2023-02-19T05:44:00.148Z,5.52
2023-02-19T05:46:31.926Z,5.54
2023-02-19T05:48:58.521Z,5.52
2023-02-19T05:51:27.012Z,5.48
2023-02-19T05:53:53.731Z,5.43
2023-02-19T05:56:26.501Z,5.34
2023-02-19T05:58:54.292Z,5.31
2023-02-19T06:01:23.357Z,5.33
2023-02-19T06:03:49.986Z,5.40
2023-02-19T06:06:18.459Z,5.48
2023-02-19T06:08:44.967Z,5.57
2023-02-19T06:11:11.951Z,5.58
2023-02-19T06:13:38.659Z,5.52
2023-02-19T06:16:06.663Z,5.40
2023-02-19T06:18:33.559Z,5.39
2023-02-19T06:21:08.538Z,5.27
2023-02-19T06:23:35.364Z,5.21
2023-02-19T06:26:23.249Z,5.15
2023-02-19T06:28:52.124Z,5.11
2023-02-19T06:31:20.688Z,5.11
2023-02-19T06:33:47.504Z,5.16
2023-02-19T06:36:17.278Z,5.25
2023-02-19T06:38:44.228Z,5.28
2023-02-19T06:41:12.301Z,5.37
2023-02-19T06:43:39.020Z,5.39
2023-02-19T06:46:07.625Z,5.35
2023-02-19T06:48:34.833Z,5.29
2023-02-19T06:51:01.699Z,5.24
2023-02-19T06:53:28.391Z,5.23
2023-02-19T06:56:04.404Z,5.23
2023-02-19T06:58:32.216Z,5.28
2023-02-19T07:00:59.172Z,5.31
2023-02-19T07:03:26.550Z,5.33
2023-02-19T07:05:53.726Z,5.37
2023-02-19T07:08:20.660Z,5.40
2023-02-19T07:10:57.649Z,5.40
2023-02-19T07:13:26.773Z,5.34
2023-02-19T07:15:59.740Z,5.32
2023-02-19T07:18:26.488Z,5.30
2023-02-19T07:20:53.031Z,5.34
2023-02-19T07:23:19.559Z,5.36
2023-02-19T07:25:46.112Z,5.39
2023-02-19T07:28:12.673Z,5.49
2023-02-19T07:30:39.183Z,5.58
2023-02-19T07:33:05.731Z,5.60
2023-02-19T07:35:32.233Z,5.61
2023-02-19T07:37:58.744Z,5.61
2023-02-19T07:40:25.253Z,5.54
2023-02-19T07:42:51.736Z,5.54
2023-02-19T07:45:18.294Z,5.69
2023-02-19T07:47:44.912Z,5.88
2023-02-19T07:50:13.755Z,6.04
2023-02-19T07:52:40.567Z,6.37
2023-02-19T07:55:07.172Z,6.64
2023-02-19T07:57:33.684Z,6.86
2023-02-19T08:00:00.527Z,7.03
2023-02-19T08:02:45.491Z,7.12
2023-02-19T08:05:13.525Z,7.16
2023-02-19T08:07:40.624Z,7.23
2023-02-19T08:10:26.236Z,7.28
2023-02-19T08:13:16.173Z,7.31
2023-02-19T08:15:43.156Z,7.43
2023-02-19T08:18:10.906Z,7.53
2023-02-19T08:20:37.858Z,7.58
2023-02-19T08:23:04.497Z,7.61
2023-02-19T08:25:31.089Z,7.58
2023-02-19T08:27:57.625Z,7.65
2023-02-19T08:30:24.552Z,7.72
2023-02-19T08:32:51.197Z,7.75
2023-02-19T08:35:17.784Z,7.80
2023-02-19T08:37:44.623Z,7.73
2023-02-19T08:40:11.996Z,7.74
2023-02-19T08:42:38.648Z,7.75
2023-02-19T08:45:05.535Z,7.70
2023-02-19T08:47:34.344Z,7.74
2023-02-19T08:50:00.949Z,7.82
2023-02-19T08:52:27.501Z,7.95
2023-02-19T08:54:54.080Z,8.00
2023-02-19T08:57:20.943Z,8.02
2023-02-19T08:59:47.450Z,7.97
2023-02-19T09:02:13.953Z,7.84
2023-02-19T09:04:40.455Z,7.76
2023-02-19T09:07:09.416Z,7.68
2023-02-19T09:09:40.150Z,7.61
2023-02-19T09:12:08.605Z,7.56
2023-02-19T09:14:36.133Z,7.53
2023-02-19T09:17:05.089Z,7.50
2023-02-19T09:19:32.416Z,7.49
2023-02-19T09:21:59.281Z,7.46
2023-02-19T09:24:25.909Z,7.45
2023-02-19T09:26:53.980Z,7.43
2023-02-19T09:29:25.340Z,7.46
2023-02-19T09:31:57.064Z,7.47
2023-02-19T09:34:24.621Z,7.58
2023-02-19T09:36:51.656Z,7.66
2023-02-19T09:39:18.669Z,7.75
2023-02-19T09:41:49.215Z,7.81
2023-02-19T09:44:25.893Z,7.92
2023-02-19T09:46:53.939Z,8.46
2023-02-19T09:49:32.084Z,8.93
2023-02-19T09:52:07.643Z,8.87
2023-02-19T09:54:37.317Z,8.93
2023-02-19T09:57:04.775Z,8.82
2023-02-19T09:59:44.161Z,8.87
2023-02-19T10:02:15.186Z,8.59
2023-02-19T10:04:43.990Z,8.49
2023-02-19T10:07:14.249Z,8.44
2023-02-19T10:09:40.944Z,8.47
2023-02-19T10:12:25.430Z,8.33
2023-02-19T10:15:15.331Z,8.30
2023-02-19T10:17:41.898Z,8.28
2023-02-19T10:20:15.455Z,8.17
2023-02-19T10:22:42.692Z,8.07
2023-02-19T10:25:15.712Z,8.04
2023-02-19T10:27:43.793Z,7.93
2023-02-19T10:30:30.363Z,7.76
2023-02-19T10:33:16.285Z,7.62
2023-02-19T10:36:21.703Z,7.62
2023-02-19T10:38:48.442Z,7.58
2023-02-19T10:41:18.006Z,7.51
2023-02-19T10:43:52.667Z,7.58
2023-02-19T10:46:21.319Z,7.46
2023-02-19T10:48:55.141Z,7.34
2023-02-19T10:51:30.631Z,7.46
2023-02-19T10:54:20.899Z,7.70
2023-02-19T10:56:47.529Z,8.04
2023-02-19T10:59:26.264Z,7.97
2023-02-19T11:01:58.597Z,7.74
2023-02-19T11:04:27.555Z,7.68
2023-02-19T11:06:54.839Z,8.14
2023-02-19T11:09:37.647Z,8.93
2023-02-19T11:12:05.809Z,9.47
2023-02-19T11:14:34.361Z,9.16
2023-02-19T11:17:04.887Z,8.80
2023-02-19T11:19:38.073Z,8.54
2023-02-19T11:22:21.073Z,8.37
2023-02-19T11:24:55.438Z,8.17
2023-02-19T11:27:24.957Z,7.99
2023-02-19T11:29:51.575Z,7.89
2023-02-19T11:32:29.826Z,7.72
2023-02-19T11:35:17.768Z,7.58
2023-02-19T11:38:02.213Z,7.75
2023-02-19T11:40:53.184Z,8.06
2023-02-19T11:43:31.913Z,8.59
2023-02-19T11:46:32.817Z,8.88
2023-02-19T11:49:34.001Z,9.01
2023-02-19T11:52:27.469Z,9.19
2023-02-19T11:55:00.783Z,9.12
2023-02-19T11:57:50.542Z,9.33
2023-02-19T12:00:31.024Z,9.31
2023-02-19T12:03:10.052Z,9.32
2023-02-19T12:06:03.334Z,9.18
2023-02-19T12:08:41.889Z,9.47
2023-02-19T12:11:29.200Z,9.56
2023-02-19T12:14:20.617Z,9.50
2023-02-19T12:16:56.415Z,9.46
2023-02-19T12:19:58.511Z,9.68
2023-02-19T12:22:33.501Z,9.83
2023-02-19T12:25:06.065Z,10.24
2023-02-19T12:28:07.931Z,10.05
2023-02-19T12:30:53.496Z,10.12
2023-02-19T12:33:57.977Z,10.20
2023-02-19T12:36:37.344Z,10.25
2023-02-19T12:39:12.621Z,10.08
2023-02-19T12:42:18.213Z,10.18
2023-02-19T12:45:10.442Z,10.28
2023-02-19T12:47:42.149Z,10.14
2023-02-19T12:50:21.251Z,10.07
2023-02-19T12:52:57.183Z,9.97
2023-02-19T12:55:41.465Z,9.85
2023-02-19T12:58:14.646Z,9.92
2023-02-19T13:00:50.547Z,9.82
2023-02-19T13:03:31.808Z,9.60
2023-02-19T13:06:03.677Z,9.49
2023-02-19T13:09:06.298Z,9.68
2023-02-19T13:12:03.236Z,9.87
2023-02-19T13:15:02.687Z,9.86
2023-02-19T13:17:41.343Z,9.98
2023-02-19T13:20:27.442Z,9.71
2023-02-19T13:23:15.814Z,9.77
2023-02-19T13:26:02.345Z,10.00
2023-02-19T13:28:41.268Z,9.87
2023-02-19T13:31:56.613Z,9.52
2023-02-19T13:34:43.035Z,9.74
2023-02-19T13:37:11.459Z,9.71
2023-02-19T13:39:48.646Z,9.81
2023-02-19T13:42:29.009Z,9.93
2023-02-19T13:44:57.996Z,9.92
2023-02-19T13:47:59.557Z,9.92
2023-02-19T13:50:32.554Z,10.20
2023-02-19T13:53:01.021Z,10.07
2023-02-19T13:55:44.899Z,9.98
2023-02-19T13:58:30.216Z,9.80
2023-02-19T14:00:56.759Z,9.68
2023-02-19T14:03:52.054Z,9.84
2023-02-19T14:06:18.997Z,9.94
2023-02-19T14:08:50.305Z,9.92
2023-02-19T14:11:17.621Z,9.97
2023-02-19T14:13:50.748Z,9.81
2023-02-19T14:17:04.507Z,9.67
2023-02-19T14:19:43.190Z,9.70
2023-02-19T14:22:53.104Z,9.66
2023-02-19T14:25:34.500Z,9.89
2023-02-19T14:28:03.028Z,9.96
2023-02-19T14:30:32.627Z,9.94
2023-02-19T14:33:10.129Z,9.94
2023-02-19T14:35:44.674Z,9.90
2023-02-19T14:38:22.557Z,9.69
2023-02-19T14:40:50.621Z,9.74
2023-02-19T14:43:19.699Z,9.68
2023-02-19T14:45:52.071Z,9.56
2023-02-19T14:48:24.370Z,9.49
2023-02-19T14:50:55.904Z,9.55
2023-02-19T14:53:25.295Z,9.41
2023-02-19T14:55:53.229Z,9.26
2023-02-19T14:58:28.345Z,9.21
2023-02-19T15:00:54.912Z,9.15
2023-02-19T15:03:39.565Z,9.06
2023-02-19T15:06:11.518Z,8.91
2023-02-19T15:08:49.745Z,8.76
2023-02-19T15:11:20.798Z,8.62
2023-02-19T15:14:08.397Z,8.45
2023-02-19T15:16:36.351Z,8.34
2023-02-19T15:19:08.564Z,8.21
2023-02-19T15:21:38.880Z,7.99
2023-02-19T15:24:07.086Z,8.02
2023-02-19T15:26:48.374Z,8.07
2023-02-19T15:29:18.452Z,8.04
2023-02-19T15:31:57.272Z,7.91
2023-02-19T15:34:24.023Z,7.75
2023-02-19T15:36:53.311Z,7.60
2023-02-19T15:42:05.025Z,7.51
2023-02-19T15:44:41.534Z,7.49
2023-02-19T15:49:54.552Z,7.03
2023-02-19T15:52:59.934Z,6.94
2023-02-19T15:55:34.603Z,6.88
2023-02-19T15:58:23.497Z,6.86
2023-02-19T16:00:54.908Z,6.81
2023-02-19T16:03:24.378Z,6.75
2023-02-19T16:06:11.487Z,6.66
2023-02-19T16:08:39.753Z,6.56
2023-02-19T16:11:24.453Z,6.51
2023-02-19T16:13:51.865Z,6.43
2023-02-19T16:16:34.936Z,6.43
2023-02-19T16:19:01.793Z,6.42
2023-02-19T16:21:28.680Z,6.37
2023-02-19T16:24:17.061Z,6.32
2023-02-19T16:26:45.357Z,6.33
2023-02-19T16:29:30.373Z,6.31
2023-02-19T16:31:59.724Z,6.28
2023-02-19T16:34:42.964Z,6.28
2023-02-19T16:37:38.916Z,6.26
2023-02-19T16:40:08.584Z,6.25
2023-02-19T16:42:36.656Z,6.17
2023-02-19T16:45:03.370Z,5.90
2023-02-19T16:47:32.299Z,5.63
2023-02-19T16:50:04.201Z,5.47
2023-02-19T16:52:31.377Z,5.28
2023-02-19T16:54:57.965Z,4.89
2023-02-19T16:57:24.714Z,4.30
2023-02-19T16:59:51.392Z,3.79
2023-02-19T17:02:21.274Z,3.50
2023-02-19T17:04:49.005Z,3.30
2023-02-19T17:07:17.711Z,2.97
2023-02-19T17:09:44.438Z,2.84
2023-02-19T17:12:12.974Z,2.62
2023-02-19T17:14:39.561Z,2.50
2023-02-19T17:17:06.617Z,2.45
2023-02-19T17:19:33.330Z,2.45
2023-02-19T17:21:59.977Z,2.42
2023-02-19T17:24:26.656Z,2.43
2023-02-19T17:26:53.208Z,2.49
2023-02-19T17:29:20.212Z,2.50
2023-02-19T17:31:46.927Z,2.48
2023-02-19T17:34:13.567Z,2.47
2023-02-19T17:36:42.851Z,2.44
2023-02-19T17:39:15.769Z,2.47
2023-02-19T17:41:42.554Z,2.49
2023-02-19T17:44:09.432Z,2.49
2023-02-19T17:46:36.515Z,2.59
2023-02-19T17:49:03.613Z,2.62
2023-02-19T17:51:30.183Z,2.62
2023-02-19T17:53:56.956Z,2.68
2023-02-19T17:56:26.210Z,2.66
2023-02-19T17:58:55.015Z,2.61
2023-02-19T18:01:21.890Z,2.52
2023-02-19T18:03:49.913Z,2.43
2023-02-19T18:06:16.765Z,2.37
2023-02-19T18:08:51.306Z,2.21
2023-02-19T18:11:19.453Z,2.15
2023-02-19T18:13:46.129Z,2.12
2023-02-19T18:16:15.620Z,2.11
2023-02-19T18:18:42.404Z,2.05
2023-02-19T18:21:10.335Z,2.00
2023-02-19T18:23:37.514Z,1.95
2023-02-19T18:26:07.660Z,1.95
2023-02-19T18:28:35.600Z,1.99
2023-02-19T18:31:02.655Z,2.06
2023-02-19T18:33:29.267Z,2.13
2023-02-19T18:35:55.821Z,2.15
2023-02-19T18:38:22.405Z,2.14
2023-02-19T18:40:49.007Z,2.25
2023-02-19T18:43:15.573Z,2.32
2023-02-19T18:45:43.422Z,2.33
2023-02-19T18:48:10.114Z,2.37
2023-02-19T18:50:36.694Z,2.36
2023-02-19T18:53:03.410Z,2.39
2023-02-19T18:55:30.013Z,2.42
2023-02-19T18:57:56.988Z,2.44
2023-02-19T19:00:26.497Z,2.39
2023-02-19T19:02:58.116Z,2.41
2023-02-19T19:05:24.747Z,2.38
2023-02-19T19:07:55.727Z,2.34
2023-02-19T19:10:23.397Z,2.38
2023-02-19T19:12:50.700Z,2.41
2023-02-19T19:15:18.905Z,2.42
2023-02-19T19:17:46.384Z,2.40
2023-02-19T19:20:13.761Z,2.40
2023-02-19T19:22:40.487Z,2.43
2023-02-19T19:25:08.661Z,2.39
2023-02-19T19:27:35.384Z,2.41
2023-02-19T19:30:02.559Z,2.45
2023-02-19T19:32:29.245Z,2.41
2023-02-19T19:34:56.013Z,2.40
2023-02-19T19:37:22.577Z,2.37
2023-02-19T19:39:49.196Z,2.30
2023-02-19T19:42:15.922Z,2.24
2023-02-19T19:44:45.300Z,2.21
2023-02-19T19:47:11.826Z,2.22
2023-02-19T19:49:38.567Z,2.20
2023-02-19T19:52:05.270Z,2.26
2023-02-19T19:54:31.827Z,2.26
2023-02-19T19:56:58.370Z,2.29
2023-02-19T20:04:55.624Z,2.34
2023-02-19T20:07:22.150Z,2.31
2023-02-19T20:09:49.953Z,2.29
2023-02-19T20:12:17.528Z,2.24
2023-02-19T20:14:45.974Z,2.34
2023-02-19T20:17:13.379Z,2.38
2023-02-19T20:19:40.014Z,2.37
2023-02-19T20:22:06.704Z,2.41
2023-02-19T20:24:33.225Z,2.45
2023-02-19T20:27:01.996Z,2.43
2023-02-19T20:29:31.183Z,2.47
2023-02-19T20:31:59.921Z,2.44
2023-02-19T20:34:27.424Z,2.46
2023-02-19T20:36:54.344Z,2.49
2023-02-19T20:39:22.205Z,2.47
2023-02-19T20:41:51.798Z,2.47
2023-02-19T20:44:19.366Z,2.41
2023-02-19T20:46:48.608Z,2.36
2023-02-19T20:49:17.088Z,2.34
2023-02-19T20:51:48.994Z,2.35
2023-02-19T20:54:17.880Z,2.32
2023-02-19T20:56:49.647Z,2.26
2023-02-19T20:59:18.840Z,2.23
2023-02-19T21:01:45.938Z,2.19
2023-02-19T21:04:13.912Z,2.15
2023-02-19T21:06:42.022Z,2.11
2023-02-19T21:09:08.673Z,2.12
2023-02-19T21:11:35.278Z,2.17
2023-02-19T21:14:02.006Z,2.18
2023-02-19T21:16:30.728Z,2.21
2023-02-19T21:18:58.228Z,2.23
2023-02-19T21:21:26.253Z,2.27
2023-02-19T21:23:54.664Z,2.25
2023-02-19T21:26:21.854Z,2.33
2023-02-19T21:31:25.441Z,2.24
2023-02-19T21:33:52.089Z,2.24
2023-02-19T21:36:18.868Z,2.18
2023-02-19T21:38:45.438Z,1.97
2023-02-19T21:41:11.974Z,1.82
2023-02-19T21:43:38.543Z,1.61
2023-02-19T21:46:05.238Z,1.40
2023-02-19T21:48:31.795Z,1.24
2023-02-19T21:50:58.312Z,1.11
2023-02-19T21:53:24.819Z,0.98
2023-02-19T21:55:58.239Z,0.87
2023-02-19T21:58:25.590Z,0.77
2023-02-19T22:00:54.895Z,0.65
2023-02-19T22:03:21.557Z,0.46
2023-02-19T22:05:48.114Z,0.26
2023-02-19T22:08:15.963Z,0.11
2023-02-19T22:10:42.593Z,-0.05
2023-02-19T22:13:10.474Z,-0.13
2023-02-19T22:15:37.300Z,-0.21
2023-02-19T22:23:27.462Z,-0.29
2023-02-19T22:25:54.018Z,-0.34
2023-02-19T22:28:20.537Z,-0.36
2023-02-19T22:30:47.171Z,-0.33
2023-02-19T22:33:13.681Z,-0.32
2023-02-19T22:35:40.315Z,-0.38
2023-02-19T22:38:07.013Z,-0.34
2023-02-19T22:40:33.531Z,-0.23
2023-02-19T22:43:00.059Z,-0.24
2023-02-19T22:45:26.609Z,-0.27
2023-02-19T22:47:56.432Z,-0.34
2023-02-19T22:50:23.337Z,-0.37
2023-02-19T22:52:50.412Z,-0.37
2023-02-19T22:55:17.239Z,-0.46
2023-02-19T22:57:43.748Z,-0.49
2023-02-19T23:00:17.773Z,-0.56
2023-02-19T23:02:46.717Z,-0.63
2023-02-19T23:05:13.237Z,-0.72
2023-02-19T23:07:43.215Z,-0.75
2023-02-19T23:10:10.840Z,-0.81
2023-02-19T23:12:38.143Z,-0.84
2023-02-19T23:15:07.356Z,-0.88
2023-02-19T23:17:33.855Z,-0.92
2023-02-19T23:20:01.542Z,-0.93
2023-02-19T23:22:28.519Z,-1.00
2023-02-19T23:24:55.204Z,-1.00
2023-02-19T23:27:24.154Z,-1.02
2023-02-19T23:29:50.714Z,-1.02
2023-02-19T23:32:20.850Z,-0.99
2023-02-19T23:34:48.066Z,-1.04
2023-02-19T23:37:15.396Z,-1.08
2023-02-19T23:39:42.037Z,-1.09
2023-02-19T23:42:15.144Z,-1.11
2023-02-19T23:44:41.713Z,-1.15
2023-02-19T23:47:08.334Z,-1.19
2023-02-19T23:49:34.880Z,-1.18
2023-02-19T23:52:01.423Z,-1.18
2023-02-19T23:54:27.948Z,-1.21
2023-02-19T23:56:56.177Z,-1.19
2023-02-19T23:59:22.868Z,-1.19
